Time;durP1;ratioP1;P1;durP2;ratioP2;P2;SDS_P1;SDS_P2;PMS_P1;PMS_P2;Temp;Humidity;BMP_temperature;BMP_pressure;BME280_temperature;BME280_humidity;BME280_pressure;Samples;Min_cycle;Max_cycle;Signal;HPM_P1;HPM_P2
2022/01/24 00:00:53;;;;;;;30.02;14.38;;;;;;;-2.41;100.00;102287.75;4944448;29;20027;-74
2022/01/24 00:03:39;;;;;;;30.15;14.25;;;;;;;-2.19;100.00;102283.06;4958204;29;20351;-72
2022/01/24 00:06:26;;;;;;;27.95;14.27;;;;;;;-2.03;100.00;102285.72;4943968;29;20031;-73
2022/01/24 00:09:12;;;;;;;28.38;14.85;;;;;;;-2.17;100.00;102292.63;4957915;29;20110;-72
2022/01/24 00:12:04;;;;;;;29.50;14.63;;;;;;;-1.83;100.00;102285.16;4958180;29;20031;-72
2022/01/24 00:17:42;;;;;;;27.20;14.32;;;;;;;-2.22;100.00;102299.16;4957707;28;20039;-73
2022/01/24 00:29:26;;;;;;;29.33;15.27;;;;;;;-1.91;100.00;102297.59;4957592;29;20028;-72
2022/01/24 00:32:12;;;;;;;29.70;14.73;;;;;;;-1.94;100.00;102302.53;4957950;28;20031;-72
2022/01/24 00:34:58;;;;;;;28.45;15.18;;;;;;;-1.69;100.00;102318.53;4957853;29;20050;-73
2022/01/24 00:37:44;;;;;;;31.00;15.20;;;;;;;-1.60;100.00;102313.06;4957646;29;20176;-72
2022/01/24 00:40:35;;;;;;;32.17;16.33;;;;;;;-1.51;100.00;102314.47;4958084;29;20050;-73
2022/01/24 00:46:17;;;;;;;30.40;15.48;;;;;;;-1.14;100.00;102331.13;4958471;28;20027;-72
2022/01/24 00:49:25;;;;;;;29.45;14.93;;;;;;;-1.51;100.00;102331.56;4957314;29;20027;-72
2022/01/24 00:55:14;;;;;;;28.52;14.95;;;;;;;-2.00;100.00;102334.69;4957258;29;20125;-73
2022/01/24 00:57:59;;;;;;;32.67;15.38;;;;;;;-2.05;100.00;102330.97;4957987;29;20027;-72
2022/01/24 01:00:45;;;;;;;28.15;15.25;;;;;;;-2.21;100.00;102336.88;4956593;29;20447;-72
2022/01/24 01:03:31;;;;;;;31.23;15.95;;;;;;;-2.27;100.00;102338.19;4957430;29;20034;-72
2022/01/24 01:06:17;;;;;;;27.70;15.20;;;;;;;-2.18;100.00;102331.03;4958380;28;20027;-72
2022/01/24 01:18:54;;;;;;;29.88;14.70;;;;;;;-2.00;100.00;102335.59;4956461;29;20020;-72
2022/01/24 01:21:40;;;;;;;35.38;16.58;;;;;;;-2.11;100.00;102339.19;4950001;28;20030;-72
2022/01/24 01:24:28;;;;;;;33.63;16.33;;;;;;;-2.11;100.00;102338.31;4957149;29;20530;-73
2022/01/24 01:27:26;;;;;;;34.20;16.20;;;;;;;-1.98;100.00;102340.78;4957366;28;20059;-73
2022/01/24 01:30:20;;;;;;;34.60;16.35;;;;;;;-2.12;100.00;102344.25;4943412;28;20459;-72
2022/01/24 01:33:15;;;;;;;30.52;14.85;;;;;;;-2.06;100.00;102337.78;4957472;28;20063;-73
2022/01/24 01:36:22;;;;;;;32.55;15.25;;;;;;;-1.90;100.00;102340.44;4957330;28;20030;-72
2022/01/24 01:39:40;;;;;;;29.58;13.60;;;;;;;-1.78;100.00;102340.25;4956685;29;20390;-72
2022/01/24 01:57:52;;;;;;;33.10;14.50;;;;;;;-1.61;100.00;102344.69;4937791;29;20028;-73
2022/01/24 02:00:42;;;;;;;39.30;15.55;;;;;;;-1.47;100.00;102343.78;4937343;29;20110;-73
2022/01/24 02:03:29;;;;;;;42.47;16.08;;;;;;;-1.30;100.00;102350.72;4937882;29;20041;-72
2022/01/24 02:06:14;;;;;;;30.70;15.02;;;;;;;-1.46;100.00;102351.56;4938062;29;20468;-73
2022/01/24 02:09:07;;;;;;;36.58;14.38;;;;;;;-2.17;100.00;102353.34;4937873;29;20027;-73
2022/01/24 02:11:53;;;;;;;32.58;14.63;;;;;;;-2.06;100.00;102353.19;4924533;29;20369;-73
2022/01/24 02:14:46;;;;;;;32.70;13.50;;;;;;;-2.10;100.00;102356.38;4929795;29;20367;-72
2022/01/24 02:26:20;;;;;;;25.67;13.10;;;;;;;-2.37;100.00;102359.84;4937277;29;20036;-72
2022/01/24 02:31:56;;;;;;;24.40;12.27;;;;;;;-2.42;100.00;102368.06;4941470;29;20525;-73
2022/01/24 02:48:23;;;;;;;22.80;12.15;;;;;;;-2.33;100.00;102395.16;4959258;28;20030;-74
2022/01/24 02:49:13;;;;;;;21.67;11.52;;;;;;;-2.47;100.00;102387.44;4960106;28;20070;-73
2022/01/24 02:52:14;;;;;;;21.38;11.43;;;;;;;-2.32;100.00;102383.25;4959651;29;20033;-72
2022/01/24 02:55:00;;;;;;;19.77;10.80;;;;;;;-2.31;100.00;102390.13;4960207;28;20452;-74
2022/01/24 02:57:46;;;;;;;23.48;11.88;;;;;;;-2.30;100.00;102394.47;4960188;29;20027;-72
2022/01/24 03:00:32;;;;;;;24.58;11.48;;;;;;;-2.22;100.00;102394.16;4959984;28;20110;-73
2022/01/24 03:07:00;;;;;;;22.55;11.85;;;;;;;-2.23;100.00;102410.34;4959479;28;20031;-73
2022/01/24 03:09:51;;;;;;;22.98;11.57;;;;;;;-2.37;100.00;102410.31;4959961;29;20079;-73
2022/01/24 03:12:43;;;;;;;22.02;11.70;;;;;;;-2.19;100.00;102417.44;4959970;28;20062;-73
2022/01/24 03:15:29;;;;;;;22.25;11.57;;;;;;;-2.16;100.00;102422.78;4960293;28;20360;-72
2022/01/24 03:18:16;;;;;;;20.95;11.65;;;;;;;-2.17;100.00;102417.53;4959201;29;20027;-73
2022/01/24 03:21:02;;;;;;;17.95;10.18;;;;;;;-2.19;100.00;102424.25;4959630;28;20107;-73
2022/01/24 03:23:48;;;;;;;19.95;10.82;;;;;;;-2.20;100.00;102422.47;4959273;29;20039;-72
2022/01/24 03:26:34;;;;;;;20.13;11.05;;;;;;;-2.24;100.00;102429.13;4958500;28;20094;-72
2022/01/24 03:29:20;;;;;;;19.48;11.13;;;;;;;-2.16;100.00;102421.88;4959011;29;20027;-73
2022/01/24 03:32:06;;;;;;;22.30;10.90;;;;;;;-2.06;100.00;102429.31;4958947;29;20030;-73
2022/01/24 03:34:51;;;;;;;21.73;11.73;;;;;;;-1.85;100.00;102431.47;4959532;28;20122;-73
2022/01/24 03:37:37;;;;;;;22.50;11.70;;;;;;;-2.07;100.00;102432.69;4958347;28;20035;-73
2022/01/24 03:40:23;;;;;;;21.52;11.23;;;;;;;-2.06;100.00;102445.63;4944304;29;20103;-73
2022/01/24 03:43:10;;;;;;;20.00;10.65;;;;;;;-2.17;100.00;102441.50;4932794;29;20430;-73
2022/01/24 03:58:51;;;;;;;19.73;11.23;;;;;;;-2.14;100.00;102446.84;5534446;23;20066;-72
2022/01/24 04:01:37;;;;;;;19.85;11.13;;;;;;;-1.95;100.00;102461.66;4957877;29;20365;-73
2022/01/24 04:23:19;;;;;;;19.90;10.98;;;;;;;-1.98;100.00;102494.84;5632764;23;20055;-72
2022/01/24 04:36:26;;;;;;;20.10;11.25;;;;;;;-2.06;100.00;102499.53;5205814;23;20055;-73
2022/01/24 04:39:13;;;;;;;20.55;10.88;;;;;;;-2.02;100.00;102516.00;4957300;29;20027;-72
2022/01/24 04:42:06;;;;;;;20.20;11.18;;;;;;;-1.89;100.00;102513.41;4958220;28;20027;-73
2022/01/24 04:45:10;;;;;;;19.17;10.25;;;;;;;-2.07;100.00;102518.31;4957710;28;20031;-73
2022/01/24 04:51:08;;;;;;;19.27;10.82;;;;;;;-1.74;100.00;102519.44;4957829;28;20040;-73
2022/01/24 04:56:55;;;;;;;18.60;10.68;;;;;;;-1.96;100.00;102531.81;4958032;28;20034;-72
2022/01/24 04:59:46;;;;;;;18.90;9.82;;;;;;;-1.92;100.00;102534.63;4957677;29;20047;-72
2022/01/24 05:02:32;;;;;;;19.48;10.88;;;;;;;-1.90;100.00;102527.03;4956315;29;20122;-73
2022/01/24 05:05:21;;;;;;;21.05;10.73;;;;;;;-1.84;100.00;102538.56;4957754;28;20442;-73
2022/01/24 05:08:08;;;;;;;18.05;9.95;;;;;;;-1.89;100.00;102537.41;4957690;28;20128;-74
2022/01/24 05:11:09;;;;;;;19.23;11.02;;;;;;;-1.84;100.00;102548.81;4942897;29;20463;-73
2022/01/24 05:32:00;;;;;;;21.10;11.60;;;;;;;-1.86;100.00;102564.94;5147564;23;20155;-74
2022/01/24 05:34:46;;;;;;;20.48;11.20;;;;;;;-1.78;100.00;102564.63;4943747;29;20036;-73
2022/01/24 05:37:32;;;;;;;21.83;11.90;;;;;;;-1.72;100.00;102574.41;4956573;28;20038;-73
2022/01/24 05:40:18;;;;;;;24.08;11.35;;;;;;;-1.95;100.00;102572.09;4957418;29;20114;-73
2022/01/24 05:43:04;;;;;;;23.98;11.98;;;;;;;-1.62;100.00;102581.84;4956665;29;20039;-73
2022/01/24 05:45:50;;;;;;;21.60;11.32;;;;;;;-1.77;100.00;102578.38;4943059;28;20101;-74
2022/01/24 05:48:35;;;;;;;18.83;11.30;;;;;;;-1.88;100.00;102576.81;4942599;29;20034;-73
2022/01/24 06:07:56;;;;;;;24.10;12.25;;;;;;;-1.70;100.00;102601.06;5598622;23;20138;-73
2022/01/24 06:10:44;;;;;;;23.88;12.80;;;;;;;-1.78;100.00;102599.69;4956182;29;20039;-73
2022/01/24 06:13:31;;;;;;;22.52;12.48;;;;;;;-1.85;100.00;102606.16;4956321;29;20039;-73
2022/01/24 06:16:17;;;;;;;26.70;13.27;;;;;;;-1.82;100.00;102606.34;4955133;28;20035;-73
2022/01/24 06:19:03;;;;;;;25.90;13.27;;;;;;;-1.82;100.00;102610.56;4956549;29;20400;-73
2022/01/24 06:21:49;;;;;;;23.73;12.85;;;;;;;-1.90;100.00;102616.91;4957056;29;20037;-72
2022/01/24 06:24:35;;;;;;;24.98;13.07;;;;;;;-1.93;100.00;102615.06;4957134;28;20030;-72
2022/01/24 06:27:21;;;;;;;23.83;12.35;;;;;;;-2.13;100.00;102624.88;4956145;28;20356;-73
2022/01/24 06:30:07;;;;;;;27.10;12.77;;;;;;;-2.13;100.00;102624.88;4941242;29;20355;-73
2022/01/24 06:32:53;;;;;;;23.67;12.23;;;;;;;-2.03;100.00;102627.22;4956184;29;20066;-72
2022/01/24 06:35:38;;;;;;;26.77;13.63;;;;;;;-1.70;100.00;102627.66;4948220;28;20445;-73
2022/01/24 06:55:35;;;;;;;26.95;13.25;;;;;;;-1.62;100.00;102644.44;5344782;23;20051;-72
2022/01/24 06:58:21;;;;;;;26.27;13.43;;;;;;;-1.83;100.00;102639.63;4942138;29;20098;-73
2022/01/24 07:01:07;;;;;;;31.73;14.38;;;;;;;-1.75;100.00;102638.44;4956209;29;20038;-73
2022/01/24 07:03:53;;;;;;;28.73;14.60;;;;;;;-1.52;100.00;102649.31;4956423;29;20190;-73
2022/01/24 07:06:39;;;;;;;27.83;14.43;;;;;;;-1.39;100.00;102646.72;4956525;28;20035;-72
2022/01/24 07:09:25;;;;;;;27.38;13.95;;;;;;;-1.42;100.00;102649.09;4942457;29;20027;-73
2022/01/24 07:12:11;;;;;;;25.52;13.68;;;;;;;-1.40;100.00;102657.78;4943319;29;20137;-74
2022/01/24 07:15:03;;;;;;;24.15;13.70;;;;;;;-1.50;100.00;102663.19;4958439;28;20031;-72
2022/01/24 07:18:17;;;;;;;24.88;14.02;;;;;;;-1.50;100.00;102665.75;4960389;28;20023;-73
2022/01/24 07:21:05;;;;;;;28.58;13.95;;;;;;;-1.44;100.00;102668.66;4945383;29;20452;-72
2022/01/24 07:23:51;;;;;;;25.90;14.07;;;;;;;-1.48;100.00;102674.41;4960270;28;20031;-72
2022/01/24 07:26:37;;;;;;;26.55;15.25;;;;;;;-0.80;100.00;102681.19;4959882;28;20483;-74
2022/01/24 07:29:26;;;;;;;28.48;15.55;;;;;;;-0.77;100.00;102677.09;4957901;29;20039;-74
2022/01/24 07:32:13;;;;;;;28.77;14.75;;;;;;;-0.69;100.00;102685.25;4958046;29;20086;-72
2022/01/24 07:37:46;;;;;;;30.33;14.98;;;;;;;-0.52;100.00;102682.00;5413828;23;20138;-71
2022/01/24 07:40:38;;;;;;;32.78;17.70;;;;;;;-0.65;100.00;102680.38;4958756;29;20026;-72
2022/01/24 07:43:24;;;;;;;30.17;16.33;;;;;;;-0.75;100.00;102683.22;4958269;29;20057;-70
2022/01/24 07:46:09;;;;;;;36.55;18.77;;;;;;;-0.64;100.00;102679.56;4957209;29;20365;-72
2022/01/24 07:48:55;;;;;;;27.55;15.93;;;;;;;-0.77;100.00;102694.19;4958782;29;20031;-73
2022/01/24 07:51:42;;;;;;;29.92;16.98;;;;;;;-0.49;100.00;102695.00;4958448;29;20042;-71
2022/01/24 07:54:27;;;;;;;27.48;15.80;;;;;;;-0.51;100.00;102696.63;4959725;28;20027;-71
2022/01/24 08:04:24;;;;;;;30.67;16.00;;;;;;;-0.55;100.00;102704.97;5018714;23;20055;-72
2022/01/24 08:07:10;;;;;;;36.00;18.10;;;;;;;-0.30;100.00;102703.91;4957512;28;20027;-71
2022/01/24 08:09:55;;;;;;;31.95;16.83;;;;;;;-0.35;100.00;102701.88;4944920;29;20098;-72
2022/01/24 08:12:43;;;;;;;29.25;15.18;;;;;;;-0.33;100.00;102702.81;4945371;28;20086;-70
2022/01/24 08:15:29;;;;;;;31.02;16.40;;;;;;;-0.65;100.00;102705.22;4958128;28;20027;-72
2022/01/24 08:18:15;;;;;;;29.48;14.90;;;;;;;-0.22;100.00;102705.25;4943389;29;20034;-71
2022/01/24 08:21:00;;;;;;;26.52;13.63;;;;;;;-0.05;100.00;102712.22;4957925;29;20425;-73
2022/01/24 08:23:47;;;;;;;25.95;14.57;;;;;;;0.04;100.00;102710.16;4958691;28;20121;-71
2022/01/24 08:26:33;;;;;;;28.35;14.13;;;;;;;0.05;100.00;102716.22;4957236;28;20035;-71
2022/01/24 08:29:19;;;;;;;24.13;13.15;;;;;;;-0.18;100.00;102726.91;4957519;29;20180;-71
2022/01/24 08:32:07;;;;;;;25.52;13.68;;;;;;;-0.08;100.00;102729.22;4957215;29;20089;-71
2022/01/24 08:35:05;;;;;;;33.40;18.88;;;;;;;0.42;100.00;102722.59;4958308;28;20337;-72
2022/01/24 08:37:51;;;;;;;27.70;13.98;;;;;;;0.71;100.00;102730.22;4957631;29;20113;-72
2022/01/24 08:40:39;;;;;;;25.35;13.27;;;;;;;0.58;100.00;102730.38;4957593;29;20038;-73
2022/01/24 08:43:39;;;;;;;24.50;13.55;;;;;;;0.80;100.00;102729.84;4944310;29;20038;-73
2022/01/24 08:46:25;;;;;;;25.15;12.75;;;;;;;1.00;100.00;102740.41;4957567;28;20019;-73
2022/01/24 08:49:10;;;;;;;25.20;14.07;;;;;;;0.40;100.00;102736.22;4956357;29;20039;-72
2022/01/24 08:51:58;;;;;;;24.27;13.38;;;;;;;0.49;100.00;102736.72;4956815;29;20421;-72
2022/01/24 08:54:44;;;;;;;23.77;13.07;;;;;;;0.26;100.00;102743.19;4957424;29;20455;-72
2022/01/24 08:57:30;;;;;;;25.45;12.82;;;;;;;0.28;100.00;102743.28;4957235;28;20425;-72
2022/01/24 09:00:16;;;;;;;22.50;11.98;;;;;;;0.17;100.00;102744.34;4957870;29;20019;-72
2022/01/24 09:03:02;;;;;;;25.67;12.85;;;;;;;0.66;100.00;102741.09;4956668;29;20113;-72
2022/01/24 09:05:49;;;;;;;20.65;11.85;;;;;;;0.54;100.00;102735.28;4943717;28;20452;-72
2022/01/24 09:17:27;;;;;;;22.80;12.48;;;;;;;0.44;100.00;102761.38;5188599;23;20062;-72
2022/01/24 09:20:14;;;;;;;19.58;10.27;;;;;;;0.35;100.00;102754.00;4956096;29;20026;-73
2022/01/24 09:22:59;;;;;;;18.83;10.30;;;;;;;0.45;100.00;102747.66;4956460;29;20031;-73
2022/01/24 09:25:45;;;;;;;18.13;10.02;;;;;;;0.29;100.00;102753.69;4957419;28;20027;-71
2022/01/24 09:28:54;;;;;;;19.17;10.98;;;;;;;0.42;100.00;102760.38;4943275;29;20067;-73
2022/01/24 09:35:23;;;;;;;19.65;11.63;;;;;;;0.99;100.00;102761.88;4956303;28;20031;-73
2022/01/24 09:38:09;;;;;;;18.00;10.50;;;;;;;-0.03;100.00;102762.13;4941368;29;20038;-73
2022/01/24 09:41:00;;;;;;;19.27;11.25;;;;;;;0.25;100.00;102762.03;4956279;29;20023;-72
2022/01/24 09:43:45;;;;;;;16.58;9.48;;;;;;;0.08;100.00;102767.91;4956491;28;20138;-73
2022/01/24 09:46:33;;;;;;;19.52;10.63;;;;;;;0.20;100.00;102760.88;4955507;28;20027;-73
2022/01/24 09:49:19;;;;;;;17.98;9.82;;;;;;;0.25;100.00;102755.97;4956437;28;20038;-71
2022/01/24 09:52:05;;;;;;;17.17;10.02;;;;;;;0.71;100.00;102757.72;4956319;29;20058;-72
2022/01/24 09:54:51;;;;;;;19.40;10.38;;;;;;;0.44;100.00;102757.09;4956187;28;20118;-73
2022/01/24 09:57:37;;;;;;;19.65;10.15;;;;;;;0.16;100.00;102768.34;4942671;29;20023;-72
2022/01/24 10:00:26;;;;;;;20.55;12.05;;;;;;;0.30;100.00;102758.03;4955528;29;20074;-72
2022/01/24 10:03:12;;;;;;;30.88;16.35;;;;;;;0.53;100.00;102760.19;4956059;29;20031;-72
2022/01/24 10:05:58;;;;;;;20.23;10.70;;;;;;;0.17;100.00;102767.56;4955892;28;20031;-73
2022/01/24 10:08:48;;;;;;;17.70;11.20;;;;;;;-0.03;100.00;102764.72;4955783;29;20046;-73
2022/01/24 10:11:34;;;;;;;16.80;10.05;;;;;;;-0.57;100.00;102760.59;4957225;28;20035;-73
2022/01/24 10:20:42;;;;;;;30.35;16.23;;;;;;;0.66;100.00;102752.31;4991262;23;20055;-72
2022/01/24 10:23:43;;;;;;;25.02;13.52;;;;;;;0.78;100.00;102754.66;4955327;29;20050;-71
2022/01/24 10:29:12;;;;;;;21.70;11.63;;;;;;;0.43;100.00;102745.00;5815964;23;20066;-72
2022/01/24 10:31:58;;;;;;;20.55;10.88;;;;;;;0.43;100.00;102739.84;4956768;29;20070;-70
2022/01/24 10:34:44;;;;;;;19.70;11.13;;;;;;;0.27;100.00;102757.84;4955220;29;20031;-71
2022/01/24 10:37:32;;;;;;;20.10;11.55;;;;;;;0.08;100.00;102747.28;4955234;28;20363;-71
2022/01/24 10:40:46;;;;;;;23.75;12.98;;;;;;;0.33;99.94;102741.84;4956152;29;20019;-71
2022/01/24 10:43:33;;;;;;;19.15;10.18;;;;;;;0.12;95.74;102756.09;4956069;28;20038;-71
2022/01/24 10:51:37;;;;;;;23.20;13.23;;;;;;;0.36;96.31;102745.44;5834878;23;20073;-72
2022/01/24 10:54:29;;;;;;;19.60;10.73;;;;;;;0.57;95.21;102741.50;4961118;29;20031;-73
2022/01/24 10:57:34;;;;;;;20.27;11.55;;;;;;;0.88;92.62;102744.91;4960755;28;20031;-73
2022/01/24 11:00:26;;;;;;;20.65;11.40;;;;;;;0.94;94.84;102749.53;4959221;29;20419;-72
2022/01/24 11:03:18;;;;;;;13.88;8.50;;;;;;;0.47;91.62;102743.50;4959432;29;20050;-72
2022/01/24 11:06:04;;;;;;;15.38;9.55;;;;;;;0.63;92.95;102741.81;4945994;29;20094;-73
2022/01/24 11:08:50;;;;;;;15.93;9.55;;;;;;;1.11;94.24;102748.72;4958786;29;20041;-73
2022/01/24 11:11:39;;;;;;;15.20;8.90;;;;;;;0.66;88.35;102743.69;4960038;28;20455;-72
2022/01/24 11:14:27;;;;;;;17.15;10.30;;;;;;;0.04;92.66;102761.69;4958393;29;20097;-73
2022/01/24 11:17:20;;;;;;;16.40;9.95;;;;;;;0.82;92.83;102748.88;4959362;28;20031;-72
2022/01/24 11:20:09;;;;;;;16.92;10.07;;;;;;;1.25;91.60;102752.91;4959222;29;20016;-71
2022/01/24 11:23:01;;;;;;;18.58;10.45;;;;;;;1.24;93.62;102752.03;4959751;29;20045;-72
2022/01/24 11:25:48;;;;;;;13.98;7.90;;;;;;;0.91;85.93;102749.34;4959562;28;20452;-71
2022/01/24 11:28:34;;;;;;;14.70;8.20;;;;;;;0.76;86.09;102749.41;4958468;29;20042;-72
2022/01/24 11:31:27;;;;;;;16.33;8.88;;;;;;;0.28;86.59;102753.59;4959220;29;20031;-72
2022/01/24 11:34:46;;;;;;;13.88;8.73;;;;;;;0.44;87.12;102746.78;4957939;29;20129;-71
2022/01/24 11:37:35;;;;;;;14.80;8.25;;;;;;;1.19;86.17;102750.91;4958009;28;20041;-72
2022/01/24 11:44:18;;;;;;;16.17;9.23;;;;;;;0.72;83.22;102751.78;4959052;28;20057;-72
2022/01/24 11:47:18;;;;;;;18.60;9.98;;;;;;;0.59;85.15;102752.78;4958017;28;20027;-71
2022/01/24 11:50:47;;;;;;;17.08;8.50;;;;;;;1.04;84.54;102747.50;4957505;29;20373;-72
2022/01/24 11:57:41;;;;;;;16.42;8.32;;;;;;;1.18;86.21;102746.56;5031779;23;20056;-73
2022/01/24 12:00:29;;;;;;;13.82;7.20;;;;;;;0.67;82.16;102736.03;4938132;29;20024;-72
2022/01/24 12:03:28;;;;;;;12.50;7.63;;;;;;;1.06;85.42;102743.31;4938469;29;20028;-71
2022/01/24 12:06:19;;;;;;;15.80;7.72;;;;;;;0.39;83.59;102740.47;4939985;29;20115;-71
2022/01/24 12:09:06;;;;;;;16.00;8.18;;;;;;;1.10;80.07;102740.09;4938155;29;20036;-72
2022/01/24 12:11:53;;;;;;;14.25;7.38;;;;;;;0.57;80.54;102731.19;4939732;28;20031;-71
2022/01/24 12:14:39;;;;;;;12.82;7.70;;;;;;;0.40;81.44;102734.50;4938926;29;20031;-72
2022/01/24 12:17:44;;;;;;;15.35;7.80;;;;;;;0.62;82.75;102731.41;4939002;29;20090;-72
2022/01/24 12:20:29;;;;;;;13.73;7.97;;;;;;;0.88;80.43;102729.44;4941405;29;20055;-72
2022/01/24 12:23:24;;;;;;;12.20;7.38;;;;;;;1.72;80.47;102733.88;4940464;28;20035;-71
2022/01/24 12:26:13;;;;;;;18.55;8.82;;;;;;;1.92;79.46;102733.16;4939160;29;20074;-71
2022/01/24 12:29:08;;;;;;;14.07;8.67;;;;;;;1.64;77.36;102727.44;4939874;28;20051;-71
2022/01/24 12:31:59;;;;;;;14.02;7.97;;;;;;;2.33;76.56;102730.00;4938834;29;20023;-72
2022/01/24 12:34:44;;;;;;;13.80;7.72;;;;;;;2.17;73.86;102732.66;4938894;29;20448;-72
2022/01/24 12:37:32;;;;;;;16.65;7.28;;;;;;;2.31;74.37;102734.19;4938797;29;20031;-71
2022/01/24 12:40:27;;;;;;;12.00;7.63;;;;;;;1.68;73.87;102736.25;4939924;28;20122;-71
2022/01/24 12:43:28;;;;;;;14.20;7.60;;;;;;;1.62;73.63;102730.75;4938334;29;20077;-72
2022/01/24 12:46:18;;;;;;;20.08;10.63;;;;;;;1.86;73.03;102726.81;4957949;28;20425;-72
2022/01/24 12:49:06;;;;;;;12.43;7.40;;;;;;;1.69;73.03;102738.00;4957336;29;20452;-72
2022/01/24 12:51:52;;;;;;;13.50;6.93;;;;;;;2.12;73.41;102737.59;4944966;28;20034;-71
2022/01/24 12:54:41;;;;;;;16.17;7.00;;;;;;;1.69;70.51;102744.03;4958151;28;20027;-71
2022/01/24 12:57:37;;;;;;;20.33;9.05;;;;;;;1.97;72.64;102744.59;4944452;28;20090;-71
2022/01/24 13:00:23;;;;;;;12.20;6.80;;;;;;;1.44;71.12;102741.03;4957400;29;20452;-72
2022/01/24 13:03:09;;;;;;;14.30;7.05;;;;;;;1.75;71.92;102739.19;4957866;28;20043;-72
2022/01/24 13:05:54;;;;;;;13.80;7.32;;;;;;;1.34;71.54;102733.63;4957560;28;20054;-72
2022/01/24 13:08:57;;;;;;;14.65;7.90;;;;;;;1.72;72.28;102739.03;4957882;28;20028;-72
2022/01/24 13:11:54;;;;;;;14.30;7.78;;;;;;;2.04;72.02;102746.69;4957213;28;20059;-72
2022/01/24 13:24:29;;;;;;;15.63;7.30;;;;;;;1.87;70.81;102764.75;4964830;23;20150;-72
2022/01/24 13:27:15;;;;;;;12.40;7.03;;;;;;;2.28;70.80;102765.06;4955768;28;20065;-72
2022/01/24 13:30:04;;;;;;;15.20;8.52;;;;;;;2.61;68.56;102765.00;4956389;29;20440;-72
2022/01/24 13:33:04;;;;;;;11.77;7.00;;;;;;;2.18;68.18;102768.03;4955665;29;20031;-72
2022/01/24 13:36:03;;;;;;;15.68;7.32;;;;;;;2.66;66.73;102762.63;4956721;28;20471;-71
2022/01/24 13:38:51;;;;;;;11.80;6.80;;;;;;;2.91;66.40;102757.75;4956707;29;20444;-71
2022/01/24 13:41:37;;;;;;;14.68;7.70;;;;;;;2.59;67.17;102755.38;4949040;29;20034;-71
2022/01/24 13:44:22;;;;;;;11.90;6.70;;;;;;;1.94;65.91;102757.41;4956480;29;20405;-71
2022/01/24 13:47:09;;;;;;;19.25;8.25;;;;;;;2.27;67.66;102761.63;4955628;28;20023;-72
2022/01/24 13:49:55;;;;;;;13.50;8.57;;;;;;;2.35;66.23;102762.88;4955388;29;20031;-72
2022/01/24 13:52:49;;;;;;;17.42;9.55;;;;;;;2.22;65.34;102759.63;4955634;29;20038;-72
2022/01/24 13:55:40;;;;;;;18.02;8.65;;;;;;;1.88;64.65;102770.00;4955446;28;20027;-71
2022/01/24 13:58:27;;;;;;;18.92;11.43;;;;;;;2.04;65.98;102775.13;4955878;29;20049;-71
2022/01/24 14:01:14;;;;;;;21.75;10.98;;;;;;;2.27;66.42;102769.38;4956489;28;20046;-71
2022/01/24 14:04:03;;;;;;;18.17;10.30;;;;;;;2.20;65.77;102767.31;4956924;29;20038;-72
2022/01/24 14:06:57;;;;;;;19.63;10.10;;;;;;;2.04;65.24;102761.28;4956267;28;20404;-72
2022/01/24 14:09:46;;;;;;;16.77;9.98;;;;;;;1.95;66.05;102773.78;4956738;29;20037;-72
2022/01/24 14:12:46;;;;;;;18.92;10.60;;;;;;;2.11;66.55;102771.13;4955425;29;20083;-72
2022/01/24 14:15:51;;;;;;;19.55;10.55;;;;;;;2.43;64.78;102765.81;4956804;28;20023;-73
2022/01/24 14:18:38;;;;;;;29.92;15.38;;;;;;;2.19;63.54;102765.53;4948658;29;20031;-72
2022/01/24 14:21:24;;;;;;;27.35;13.73;;;;;;;1.77;65.23;102754.78;4956125;29;20031;-72
2022/01/24 14:24:42;;;;;;;26.33;12.25;;;;;;;2.47;65.22;102754.81;4955431;29;20055;-71
2022/01/24 14:27:35;;;;;;;22.63;12.48;;;;;;;2.16;62.56;102760.22;4956122;28;20528;-71
2022/01/24 14:30:27;;;;;;;17.35;10.07;;;;;;;2.03;62.78;102756.94;4956493;29;20032;-72
2022/01/24 14:33:20;;;;;;;15.85;9.43;;;;;;;2.32;62.23;102767.00;4955862;29;20050;-72
2022/01/24 14:36:17;;;;;;;20.17;10.25;;;;;;;2.30;61.91;102759.19;4955055;28;20042;-71
2022/01/24 14:39:06;;;;;;;19.00;9.60;;;;;;;2.09;62.94;102768.47;4955882;29;20024;-72
2022/01/24 14:41:52;;;;;;;15.77;8.77;;;;;;;2.33;62.34;102769.66;4955338;29;20115;-72
2022/01/24 14:44:53;;;;;;;15.75;9.80;;;;;;;2.37;62.47;102766.41;4954723;29;20062;-72
2022/01/24 14:50:14;;;;;;;20.27;10.07;;;;;;;2.09;63.33;102772.78;5676568;23;20051;-72
2022/01/24 14:53:04;;;;;;;19.88;10.63;;;;;;;2.37;62.49;102770.72;4956854;28;20031;-71
2022/01/24 14:55:49;;;;;;;24.67;12.10;;;;;;;2.29;61.59;102770.31;4942207;28;20038;-72
2022/01/24 14:58:35;;;;;;;26.20;13.85;;;;;;;2.21;60.96;102776.81;4955506;29;20173;-72
2022/01/24 15:01:22;;;;;;;19.15;11.57;;;;;;;2.17;61.73;102780.06;4954887;29;20023;-72
2022/01/24 15:04:07;;;;;;;17.95;10.82;;;;;;;2.19;62.82;102770.72;4955993;29;20102;-73
2022/01/24 15:06:53;;;;;;;21.13;11.25;;;;;;;2.36;61.48;102767.22;4954482;28;20397;-72
2022/01/24 15:09:40;;;;;;;22.95;12.48;;;;;;;2.35;61.96;102773.22;4956325;28;20039;-72
2022/01/24 15:12:25;;;;;;;22.23;12.57;;;;;;;2.50;60.62;102773.97;4955983;28;20527;-71
2022/01/24 15:15:15;;;;;;;22.13;12.05;;;;;;;2.23;61.10;102780.38;4954963;29;20023;-72
2022/01/24 15:24:12;;;;;;;26.05;12.75;;;;;;;2.12;62.90;102773.81;4956003;28;20456;-72
2022/01/24 15:26:59;;;;;;;23.30;12.88;;;;;;;2.27;63.80;102789.19;4955829;28;20042;-71
2022/01/24 15:29:44;;;;;;;22.35;12.98;;;;;;;2.07;66.19;102784.72;4956293;28;20027;-71
2022/01/24 15:32:30;;;;;;;24.42;14.63;;;;;;;2.06;65.71;102780.38;4955284;28;20035;-72
2022/01/24 15:35:17;;;;;;;25.95;15.00;;;;;;;2.11;66.85;102781.47;4955452;28;20027;-71
2022/01/24 15:38:06;;;;;;;24.08;14.18;;;;;;;1.86;67.20;102778.50;4958628;29;20035;-73
2022/01/24 15:40:51;;;;;;;23.00;13.38;;;;;;;1.87;69.04;102788.00;4958959;29;20038;-71
2022/01/24 15:44:02;;;;;;;25.20;14.23;;;;;;;1.62;71.71;102788.47;4958908;29;20101;-73
2022/01/24 15:46:59;;;;;;;30.35;16.20;;;;;;;2.12;70.16;102791.00;4959018;28;20359;-71
2022/01/24 15:49:45;;;;;;;26.08;15.05;;;;;;;2.05;70.52;102794.13;4958507;28;20087;-74
2022/01/24 15:52:30;;;;;;;26.33;14.43;;;;;;;1.79;69.81;102797.97;4958594;29;20172;-72
2022/01/24 15:55:25;;;;;;;21.80;12.80;;;;;;;1.30;73.04;102804.00;4958947;29;20452;-74
2022/01/24 15:58:11;;;;;;;21.67;11.18;;;;;;;1.59;71.93;102808.97;4943545;29;20031;-71
2022/01/24 16:00:57;;;;;;;23.02;11.77;;;;;;;1.56;73.80;102813.97;4958550;29;20027;-72
2022/01/24 16:03:42;;;;;;;20.65;11.13;;;;;;;1.41;72.43;102827.81;4958235;29;20365;-71
2022/01/24 16:06:29;;;;;;;21.33;11.75;;;;;;;1.23;73.95;102817.38;4958475;28;20094;-71
2022/01/24 16:09:15;;;;;;;19.20;11.70;;;;;;;0.79;77.04;102813.19;4958733;28;20027;-72
2022/01/24 16:23:54;;;;;;;22.05;9.75;;;;;;;0.42;93.78;102819.69;4958567;29;20125;-72
2022/01/24 16:26:44;;;;;;;18.30;10.23;;;;;;;0.44;97.79;102818.09;4957986;28;20523;-72
2022/01/24 16:29:30;;;;;;;21.98;11.93;;;;;;;0.49;95.46;102819.22;4944103;29;20031;-72
2022/01/24 16:32:16;;;;;;;18.70;9.80;;;;;;;0.60;95.07;102816.44;4957249;29;20030;-70
2022/01/24 16:35:05;;;;;;;18.42;9.60;;;;;;;0.33;97.05;102821.75;4943669;29;20121;-71
2022/01/24 16:37:52;;;;;;;18.80;10.05;;;;;;;0.42;96.47;102823.16;4944579;29;20042;-71
2022/01/24 16:41:21;;;;;;;18.20;8.95;;;;;;;0.42;99.58;102830.91;4957653;28;20030;-73
2022/01/24 16:44:20;;;;;;;18.00;9.32;;;;;;;0.44;98.75;102820.69;4951918;29;20031;-74
2022/01/24 16:47:12;;;;;;;22.27;11.35;;;;;;;0.28;100.00;102834.38;4957007;28;20209;-72
2022/01/24 16:49:58;;;;;;;18.55;10.35;;;;;;;0.49;99.82;102830.44;4943773;29;20038;-73
2022/01/24 16:52:45;;;;;;;20.45;10.98;;;;;;;0.29;99.84;102831.00;4957930;29;20046;-71
2022/01/24 16:55:32;;;;;;;20.80;11.43;;;;;;;0.21;100.00;102833.94;4957075;28;20035;-71
2022/01/24 16:58:20;;;;;;;21.13;12.27;;;;;;;0.34;100.00;102837.31;4958188;28;20070;-71